createdAt,value
2019-04-04T00:00:09.690Z,1001.3585
2019-04-04T00:00:21.553Z,1001.3339
2019-04-04T00:00:33.426Z,1001.3032
2019-04-04T00:00:47.006Z,1001.2962
2019-04-04T00:00:58.211Z,1001.3049
2019-04-04T00:01:10.042Z,1001.2634
2019-04-04T00:01:21.904Z,1001.2606
2019-04-04T00:01:33.735Z,1001.2862
2019-04-04T00:01:47.716Z,1001.2848
2019-04-04T00:01:58.411Z,1001.2541
2019-04-04T00:02:10.435Z,1001.2443
2019-04-04T00:02:22.256Z,1001.2148
2019-04-04T00:02:34.170Z,1001.171
2019-04-04T00:02:46.053Z,1001.1815
2019-04-04T00:02:57.924Z,1001.1919
2019-04-04T00:03:09.797Z,1001.182
2019-04-04T00:03:21.749Z,1001.1646
2019-04-04T00:03:33.484Z,1001.1973
2019-04-04T00:03:45.337Z,1001.176
2019-04-04T00:03:57.195Z,1001.1712
2019-04-04T00:04:09.053Z,1001.2006
2019-04-04T00:04:22.057Z,1001.1704
2019-04-04T00:04:33.714Z,1001.2088
2019-04-04T00:04:45.544Z,1001.1967
2019-04-04T00:04:57.820Z,1001.2114
2019-04-04T00:05:09.230Z,1001.1612
2019-04-04T00:05:21.075Z,1001.1776
2019-04-04T00:05:32.897Z,1001.2
2019-04-04T00:05:44.848Z,1001.1671
2019-04-04T00:05:57.106Z,1001.1776
2019-04-04T00:06:08.569Z,1001.1607
2019-04-04T00:06:20.446Z,1001.2148
2019-04-04T00:06:32.274Z,1001.1738
2019-04-04T00:06:44.107Z,1001.2196
2019-04-04T00:06:57.668Z,1001.2246
2019-04-04T00:07:08.867Z,1001.2553
2019-04-04T00:07:20.711Z,1001.2525
2019-04-04T00:07:32.568Z,1001.2438
2019-04-04T00:07:44.429Z,1001.2279
2019-04-04T00:07:56.294Z,1001.2164
2019-04-04T00:08:08.123Z,1001.2006
2019-04-04T00:08:19.980Z,1001.2137
2019-04-04T00:08:31.909Z,1001.2395
2019-04-04T00:08:43.635Z,1001.2065
2019-04-04T00:08:55.459Z,1001.2354
2019-04-04T00:09:07.319Z,1001.182
2019-04-04T00:09:19.154Z,1001.1733
2019-04-04T00:09:31.153Z,1001.1487
2019-04-04T00:09:43.849Z,1001.1229
2019-04-04T00:09:55.685Z,1001.1124
2019-04-04T00:10:07.535Z,1001.1354
2019-04-04T00:10:19.421Z,1001.096
2019-04-04T00:10:32.804Z,1001.0914
2019-04-04T00:10:44.120Z,1001.0978
2019-04-04T00:10:56.013Z,1001.0606
2019-04-04T00:11:07.870Z,1001.0246
2019-04-04T00:11:19.698Z,1001.0198
2019-04-04T00:11:31.531Z,1001.0393
2019-04-04T00:11:43.372Z,1000.9771
2019-04-04T00:11:55.212Z,1000.9887
2019-04-04T00:12:08.030Z,1000.9494
2019-04-04T00:12:19.950Z,1000.9204
2019-04-04T00:12:31.779Z,1000.9221
2019-04-04T00:12:43.610Z,1000.921
2019-04-04T00:12:55.440Z,1000.8817
2019-04-04T00:13:07.271Z,1000.9031
2019-04-04T00:13:19.086Z,1000.8691
2019-04-04T00:13:30.917Z,1000.8937
2019-04-04T00:13:42.731Z,1000.884
2019-04-04T00:13:54.559Z,1000.8764
2019-04-04T00:14:06.431Z,1000.8671
2019-04-04T00:14:18.247Z,1000.8814
2019-04-04T00:14:30.080Z,1000.8961
2019-04-04T00:14:43.463Z,1000.8705
2019-04-04T00:14:54.820Z,1000.89
2019-04-04T00:15:06.652Z,1000.8775
2019-04-04T00:15:18.464Z,1000.8967
2019-04-04T00:15:30.302Z,1000.9299
2019-04-04T00:15:42.159Z,1000.9595
2019-04-04T00:15:53.982Z,1000.9529
2019-04-04T00:16:05.827Z,1000.9728
2019-04-04T00:16:17.648Z,1000.9586
2019-04-04T00:16:29.508Z,1000.964
2019-04-04T00:16:41.350Z,1001.0089
2019-04-04T00:16:53.175Z,1001.0021
2019-04-04T00:17:05.064Z,1001.0454
2019-04-04T00:17:16.973Z,1001.1104
2019-04-04T00:17:28.789Z,1001.064
2019-04-04T00:17:40.674Z,1001.07
2019-04-04T00:17:53.739Z,1001.106
2019-04-04T00:18:05.332Z,1001.111
2019-04-04T00:18:17.190Z,1001.082
2019-04-04T00:18:29.096Z,1001.0971
2019-04-04T00:18:40.925Z,1001.1289
2019-04-04T00:18:52.818Z,1001.0865
2019-04-04T00:19:04.646Z,1001.1437
2019-04-04T00:19:16.502Z,1001.1207
2019-04-04T00:19:29.837Z,1001.1367
2019-04-04T00:19:41.191Z,1001.1365
2019-04-04T00:19:53.025Z,1001.1791
2019-04-04T00:20:04.859Z,1001.1564
2019-04-04T00:20:16.765Z,1001.1709
2019-04-04T00:20:29.852Z,1001.1545
2019-04-04T00:20:41.442Z,1001.1514
2019-04-04T00:20:53.353Z,1001.1529
2019-04-04T00:21:05.183Z,1001.1414
2019-04-04T00:21:17.047Z,1001.1818
2019-04-04T00:21:28.882Z,1001.1492
2019-04-04T00:21:40.802Z,1001.1654
2019-04-04T00:21:52.635Z,1001.167
2019-04-04T00:22:04.891Z,1001.1877
2019-04-04T00:22:16.455Z,1001.2211
2019-04-04T00:22:28.269Z,1001.1702
2019-04-04T00:22:40.089Z,1001.2073
2019-04-04T00:22:52.967Z,1001.2084
2019-04-04T00:23:04.975Z,1001.2136
2019-04-04T00:23:17.739Z,1001.2205
2019-04-04T00:23:29.576Z,1001.2248
2019-04-04T00:23:41.462Z,1001.2041
2019-04-04T00:23:53.327Z,1001.2379
2019-04-04T00:24:05.150Z,1001.2127
2019-04-04T00:24:16.985Z,1001.2456
2019-04-04T00:24:28.835Z,1001.2421
2019-04-04T00:24:40.652Z,1001.215
2019-04-04T00:24:52.511Z,1001.2047
2019-04-04T00:25:04.348Z,1001.2651
2019-04-04T00:25:16.174Z,1001.2581
2019-04-04T00:25:28.008Z,1001.2809
2019-04-04T00:25:40.411Z,1001.3231
2019-04-04T00:25:52.659Z,1001.3034
2019-04-04T00:26:04.486Z,1001.2918
2019-04-04T00:26:16.313Z,1001.3393
2019-04-04T00:26:28.138Z,1001.3328
2019-04-04T00:26:41.561Z,1001.341
2019-04-04T00:26:52.785Z,1001.3278
2019-04-04T00:27:04.626Z,1001.3289
2019-04-04T00:27:16.468Z,1001.2993
2019-04-04T00:27:28.304Z,1001.3045
2019-04-04T00:27:40.132Z,1001.2853
2019-04-04T00:27:51.957Z,1001.3045
2019-04-04T00:28:03.816Z,1001.2896
2019-04-04T00:28:15.646Z,1001.2829
2019-04-04T00:28:27.483Z,1001.2617
2019-04-04T00:28:39.312Z,1001.2288
2019-04-04T00:28:51.127Z,1001.2284
2019-04-04T00:29:02.959Z,1001.1962
2019-04-04T00:29:16.794Z,1001.2387
2019-04-04T00:29:27.636Z,1001.1667
2019-04-04T00:29:39.464Z,1001.1551
2019-04-04T00:29:51.282Z,1001.129
2019-04-04T00:30:03.114Z,1001.1272
2019-04-04T00:30:16.090Z,1001.106
2019-04-04T00:30:27.759Z,1001.0524
2019-04-04T00:30:39.597Z,1001.0568
2019-04-04T00:30:51.416Z,1001.005
2019-04-04T00:31:03.983Z,1000.994
2019-04-04T00:31:18.720Z,1000.9869
2019-04-04T00:31:28.645Z,1000.9558
2019-04-04T00:31:40.486Z,1000.9395
2019-04-04T00:31:52.307Z,1000.959
2019-04-04T00:32:04.145Z,1000.9311
2019-04-04T00:32:15.979Z,1000.8721
2019-04-04T00:32:27.810Z,1000.8826
2019-04-04T00:32:39.644Z,1000.859
2019-04-04T00:32:52.745Z,1000.8679
2019-04-04T00:33:04.349Z,1000.8178
2019-04-04T00:33:16.176Z,1000.8057
2019-04-04T00:33:28.037Z,1000.8356
2019-04-04T00:33:39.911Z,1000.8178
2019-04-04T00:33:51.752Z,1000.8267
2019-04-04T00:34:03.610Z,1000.8576
2019-04-04T00:34:15.393Z,1000.8322
2019-04-04T00:34:27.990Z,1000.8713
2019-04-04T00:34:40.052Z,1000.85
2019-04-04T00:34:51.889Z,1000.8666
2019-04-04T00:35:03.711Z,1000.919
2019-04-04T00:35:15.604Z,1000.8781
2019-04-04T00:35:29.027Z,1000.9375
2019-04-04T00:35:40.196Z,1000.919
2019-04-04T00:35:52.022Z,1000.972
2019-04-04T00:36:03.835Z,1000.9623
2019-04-04T00:36:15.683Z,1001.0037
2019-04-04T00:36:27.513Z,1000.9508
2019-04-04T00:36:39.336Z,1000.9884
2019-04-04T00:36:51.162Z,1000.9776
2019-04-04T00:37:04.700Z,1000.9866
2019-04-04T00:37:15.837Z,1000.9884
2019-04-04T00:37:27.670Z,1001.0103
2019-04-04T00:37:41.020Z,1001.0048
2019-04-04T00:37:52.317Z,1001.0037
2019-04-04T00:38:06.651Z,1000.9759
2019-04-04T00:38:16.963Z,1000.9676
2019-04-04T00:38:28.818Z,1000.9938
2019-04-04T00:38:40.642Z,1001.0457
2019-04-04T00:38:52.476Z,1001.0072
2019-04-04T00:39:04.305Z,1001.0529
2019-04-04T00:39:16.133Z,1001.048
2019-04-04T00:39:27.969Z,1001.0629
2019-04-04T00:39:40.414Z,1001.0682
2019-04-04T00:39:52.632Z,1001.0711
2019-04-04T00:40:04.455Z,1001.0929
2019-04-04T00:40:16.307Z,1001.1355
2019-04-04T00:40:28.129Z,1001.142
2019-04-04T00:40:40.060Z,1001.161
2019-04-04T00:40:52.793Z,1001.1793
2019-04-04T00:41:04.628Z,1001.2043
2019-04-04T00:41:16.454Z,1001.2354
2019-04-04T00:41:28.284Z,1001.2012
2019-04-04T00:41:40.117Z,1001.2207
2019-04-04T00:41:51.945Z,1001.2093
2019-04-04T00:42:03.777Z,1001.1995
2019-04-04T00:42:16.953Z,1001.2076
2019-04-04T00:42:28.433Z,1001.193
2019-04-04T00:42:40.266Z,1001.205
2019-04-04T00:42:52.087Z,1001.2028
2019-04-04T00:43:03.934Z,1001.1963
2019-04-04T00:43:15.773Z,1001.2518
2019-04-04T00:43:27.604Z,1001.2256
2019-04-04T00:43:39.439Z,1001.2131
2019-04-04T00:43:51.761Z,1001.242
2019-04-04T00:44:04.068Z,1001.234
2019-04-04T00:44:15.896Z,1001.2224
2019-04-04T00:44:27.717Z,1001.2017
2019-04-04T00:44:39.582Z,1001.1947
2019-04-04T00:44:51.598Z,1001.183
2019-04-04T00:45:03.883Z,1001.1766
2019-04-04T00:45:16.517Z,1001.1732
2019-04-04T00:45:29.523Z,1001.1551
2019-04-04T00:45:41.825Z,1001.1645
2019-04-04T00:45:54.460Z,1001.124
2019-04-04T00:46:07.088Z,1001.0971
2019-04-04T00:46:19.711Z,1001.0742
2019-04-04T00:46:32.331Z,1001.025
2019-04-04T00:46:44.962Z,1000.9955
2019-04-04T00:46:57.576Z,1000.9808
2019-04-04T00:47:11.168Z,1000.9529
2019-04-04T00:47:23.817Z,1000.9103
2019-04-04T00:47:36.467Z,1000.8918
2019-04-04T00:47:49.079Z,1000.864
2019-04-04T00:48:03.041Z,1000.8998
2019-04-04T00:48:15.324Z,1000.8736
2019-04-04T00:48:27.965Z,1000.8081
2019-04-04T00:48:40.606Z,1000.7722
2019-04-04T00:48:53.232Z,1000.7869
2019-04-04T00:49:05.445Z,1000.7918
2019-04-04T00:49:17.040Z,1000.7376
2019-04-04T00:49:28.875Z,1000.6875
2019-04-04T00:49:40.701Z,1000.6776
2019-04-04T00:49:52.573Z,1000.63
2019-04-04T00:50:06.625Z,1000.612
2019-04-04T00:50:17.222Z,1000.6038
2019-04-04T00:50:29.056Z,1000.5693
2019-04-04T00:50:40.905Z,1000.5482
2019-04-04T00:50:52.743Z,1000.5335
2019-04-04T00:51:07.575Z,1000.4848
2019-04-04T00:51:17.374Z,1000.5045
2019-04-04T00:51:29.203Z,1000.4545
2019-04-04T00:51:41.032Z,1000.4511
2019-04-04T00:51:52.866Z,1000.4362
2019-04-04T00:52:04.697Z,1000.4495
2019-04-04T00:52:16.534Z,1000.45
2019-04-04T00:52:28.365Z,1000.4752
2019-04-04T00:52:41.312Z,1000.4359
2019-04-04T00:52:53.013Z,1000.4555
2019-04-04T00:53:04.845Z,1000.4348
2019-04-04T00:53:16.674Z,1000.4022
2019-04-04T00:53:28.508Z,1000.4288
2019-04-04T00:53:42.694Z,1000.4504
2019-04-04T00:53:53.163Z,1000.4689
2019-04-04T00:54:04.999Z,1000.45
2019-04-04T00:54:16.825Z,1000.4537
2019-04-04T00:54:28.719Z,1000.4636
2019-04-04T00:54:40.498Z,1000.4662
2019-04-04T00:54:52.338Z,1000.5028
2019-04-04T00:55:04.172Z,1000.4846
2019-04-04T00:55:16.373Z,1000.4885
2019-04-04T00:55:27.888Z,1000.5028
2019-04-04T00:55:39.721Z,1000.474
2019-04-04T00:55:51.569Z,1000.4675
2019-04-04T00:56:03.382Z,1000.4335
2019-04-04T00:56:16.015Z,1000.4245
2019-04-04T00:56:28.028Z,1000.4168
2019-04-04T00:56:39.865Z,1000.4054
2019-04-04T00:56:51.683Z,1000.3825
2019-04-04T00:57:03.522Z,1000.4124
2019-04-04T00:57:15.362Z,1000.3665
2019-04-04T00:57:27.191Z,1000.4414
2019-04-04T00:57:39.025Z,1000.3607
2019-04-04T00:57:50.847Z,1000.3978
2019-04-04T00:58:02.676Z,1000.3803
2019-04-04T00:58:14.526Z,1000.3804
2019-04-04T00:58:26.347Z,1000.3677
2019-04-04T00:58:38.181Z,1000.3789
2019-04-04T00:58:51.926Z,1000.3789
2019-04-04T00:59:02.837Z,1000.4079
2019-04-04T00:59:14.667Z,1000.4177
2019-04-04T00:59:26.487Z,1000.4609
2019-04-04T00:59:38.322Z,1000.4467
2019-04-04T00:59:50.152Z,1000.4516
2019-04-04T01:00:01.976Z,1000.4649
2019-04-04T01:00:13.841Z,1000.4573
2019-04-04T01:00:25.655Z,1000.4792
2019-04-04T01:00:37.569Z,1000.4628
2019-04-04T01:00:49.405Z,1000.4824
2019-04-04T01:01:01.220Z,1000.4863
2019-04-04T01:01:13.057Z,1000.4901
2019-04-04T01:01:26.788Z,1000.4598
2019-04-04T01:01:37.708Z,1000.4802
2019-04-04T01:01:50.528Z,1000.5089
2019-04-04T01:02:02.346Z,1000.5028
2019-04-04T01:02:14.178Z,1000.504
2019-04-04T01:02:27.406Z,1000.4587
2019-04-04T01:02:38.841Z,1000.4528
2019-04-04T01:02:50.684Z,1000.4921
2019-04-04T01:03:02.510Z,1000.4879
2019-04-04T01:03:14.359Z,1000.4753
2019-04-04T01:03:26.190Z,1000.472
2019-04-04T01:03:38.010Z,1000.459
2019-04-04T01:03:49.838Z,1000.4695
2019-04-04T01:04:01.659Z,1000.4414
2019-04-04T01:04:13.493Z,1000.3931
2019-04-04T01:04:25.332Z,1000.4449
2019-04-04T01:04:37.151Z,1000.3918
2019-04-04T01:04:48.980Z,1000.4509
2019-04-04T01:05:01.482Z,1000.3996
2019-04-04T01:05:13.632Z,1000.3773
2019-04-04T01:05:25.456Z,1000.4007
2019-04-04T01:05:37.434Z,1000.3812
2019-04-04T01:05:49.263Z,1000.3976
2019-04-04T01:06:03.452Z,1000.3632
2019-04-04T01:06:13.922Z,1000.3796
2019-04-04T01:06:25.747Z,1000.354
2019-04-04T01:06:37.568Z,1000.3638
2019-04-04T01:06:49.400Z,1000.3709
2019-04-04T01:07:02.989Z,1000.3551
2019-04-04T01:07:15.627Z,1000.3605
2019-04-04T01:07:28.199Z,1000.3273
2019-04-04T01:07:40.794Z,1000.3306
2019-04-04T01:07:53.365Z,1000.3585
2019-04-04T01:08:06.893Z,1000.3552
2019-04-04T01:08:19.465Z,1000.3165
2019-04-04T01:08:32.034Z,1000.3574
2019-04-04T01:08:44.583Z,1000.3574
2019-04-04T01:08:57.150Z,1000.3068
2019-04-04T01:09:13.011Z,1000.3067
2019-04-04T01:09:23.167Z,1000.303
2019-04-04T01:09:35.787Z,1000.3096
2019-04-04T01:09:48.487Z,1000.3226
2019-04-04T01:10:00.970Z,1000.2856
2019-04-04T01:10:13.554Z,1000.3233
2019-04-04T01:10:26.149Z,1000.2501
2019-04-04T01:10:37.947Z,1000.2553
2019-04-04T01:10:50.508Z,1000.2148
2019-04-04T01:11:03.077Z,1000.2672
2019-04-04T01:11:15.653Z,1000.2852
2019-04-04T01:11:28.245Z,1000.2285
2019-04-04T01:11:40.844Z,1000.2498
2019-04-04T01:11:53.461Z,1000.2313
2019-04-04T01:12:06.081Z,1000.1889
2019-04-04T01:12:21.409Z,1000.1779
2019-04-04T01:12:32.222Z,1000.1418
2019-04-04T01:12:44.833Z,1000.1517
2019-04-04T01:12:57.446Z,1000.1376
2019-04-04T01:13:10.021Z,1000.1671
2019-04-04T01:13:23.240Z,1000.1148
2019-04-04T01:13:36.175Z,1000.1426
2019-04-04T01:13:48.774Z,1000.1464
2019-04-04T01:14:01.382Z,1000.1679
2019-04-04T01:14:14.000Z,1000.1553
2019-04-04T01:14:27.121Z,1000.1177
2019-04-04T01:14:39.967Z,1000.08
2019-04-04T01:14:52.579Z,1000.1181
2019-04-04T01:15:05.215Z,1000.0953
2019-04-04T01:15:17.840Z,1000.091
2019-04-04T01:15:31.100Z,1000.127
2019-04-04T01:15:44.205Z,1000.1303
2019-04-04T01:15:56.880Z,1000.0567
2019-04-04T01:16:09.429Z,1000.085
2019-04-04T01:16:22.064Z,1000.0473
2019-04-04T01:16:34.648Z,1000.0424
2019-04-04T01:16:47.312Z,1000.0496
2019-04-04T01:16:59.922Z,1000.0295
2019-04-04T01:17:13.502Z,1000.0415
2019-04-04T01:17:26.157Z,1000.0217
2019-04-04T01:17:38.792Z,1000.0054
2019-04-04T01:17:51.348Z,999.99951
2019-04-04T01:18:06.037Z,1000.0012
2019-04-04T01:18:17.653Z,1000.0387
2019-04-04T01:18:30.266Z,999.99841
2019-04-04T01:18:42.928Z,999.97015
2019-04-04T01:18:55.570Z,999.94891
2019-04-04T01:19:09.888Z,999.97241
2019-04-04T01:19:21.537Z,999.96752
2019-04-04T01:19:34.098Z,999.92376
2019-04-04T01:19:48.697Z,999.93359
2019-04-04T01:20:00.156Z,999.91455
2019-04-04T01:20:12.776Z,999.93194
2019-04-04T01:20:25.344Z,999.94079
2019-04-04T01:20:37.981Z,999.92517
2019-04-04T01:20:51.301Z,999.90045
2019-04-04T01:21:03.323Z,999.92999
2019-04-04T01:21:15.915Z,999.94903
2019-04-04T01:21:28.596Z,999.9317
2019-04-04T01:21:41.129Z,999.93719
2019-04-04T01:21:53.962Z,999.9378
2019-04-04T01:22:06.335Z,999.88592
2019-04-04T01:22:18.968Z,999.92028
2019-04-04T01:22:31.576Z,999.91107
2019-04-04T01:22:44.189Z,999.88671
2019-04-04T01:22:56.785Z,999.95471
2019-04-04T01:23:09.305Z,999.91326
2019-04-04T01:23:21.755Z,999.93463
2019-04-04T01:23:34.335Z,999.93798
2019-04-04T01:23:46.915Z,999.945
2019-04-04T01:23:59.431Z,999.91717
2019-04-04T01:24:12.027Z,999.92272
2019-04-04T01:24:25.245Z,999.86407
2019-04-04T01:24:37.560Z,999.94592
2019-04-04T01:24:50.132Z,999.92797
2019-04-04T01:25:02.770Z,999.95092
2019-04-04T01:25:15.377Z,999.93335
2019-04-04T01:25:27.888Z,999.90399
2019-04-04T01:25:40.455Z,999.90344
2019-04-04T01:25:53.054Z,999.95373
2019-04-04T01:26:05.735Z,999.92657
2019-04-04T01:26:18.222Z,999.95904
2019-04-04T01:26:30.060Z,999.95336
2019-04-04T01:26:41.882Z,999.97131
2019-04-04T01:26:53.724Z,999.9718
2019-04-04T01:27:06.199Z,999.96179
2019-04-04T01:27:18.350Z,999.99945
2019-04-04T01:27:30.234Z,1000.042
2019-04-04T01:27:42.048Z,1000.0437
2019-04-04T01:27:53.881Z,1000.0736
2019-04-04T01:28:06.101Z,1000.0976
2019-04-04T01:28:18.541Z,1000.0993
2019-04-04T01:28:30.384Z,1000.0661
2019-04-04T01:28:42.201Z,1000.1456
2019-04-04T01:28:54.043Z,1000.174
2019-04-04T01:29:06.074Z,1000.1757
2019-04-04T01:29:17.690Z,1000.1479
2019-04-04T01:29:29.521Z,1000.173
2019-04-04T01:29:41.534Z,1000.2042
2019-04-04T01:29:53.185Z,1000.2009
2019-04-04T01:30:05.007Z,1000.219
2019-04-04T01:30:16.825Z,1000.2484
2019-04-04T01:30:28.669Z,1000.1983
2019-04-04T01:30:41.635Z,1000.2456
2019-04-04T01:30:53.348Z,1000.2233
2019-04-04T01:31:05.185Z,1000.2506
2019-04-04T01:31:17.022Z,1000.2393
2019-04-04T01:31:28.864Z,1000.2971
2019-04-04T01:31:40.707Z,1000.2921
2019-04-04T01:31:52.526Z,1000.2937
2019-04-04T01:32:04.376Z,1000.3018
2019-04-04T01:32:17.021Z,1000.3184
2019-04-04T01:32:29.045Z,1000.3123
2019-04-04T01:32:40.948Z,1000.3031
2019-04-04T01:32:52.780Z,1000.3309
2019-04-04T01:33:04.649Z,1000.3354
2019-04-04T01:33:19.641Z,1000.3075
2019-04-04T01:33:29.286Z,1000.3228
2019-04-04T01:33:41.131Z,1000.3049
2019-04-04T01:33:52.964Z,1000.3457
2019-04-04T01:34:04.817Z,1000.3474
2019-04-04T01:34:16.658Z,1000.3311
2019-04-04T01:34:28.490Z,1000.3131
2019-04-04T01:34:40.323Z,1000.3075
2019-04-04T01:34:52.717Z,1000.3081
2019-04-04T01:35:04.017Z,1000.2492
2019-04-04T01:35:15.859Z,1000.217
2019-04-04T01:35:27.686Z,1000.2279
2019-04-04T01:35:39.522Z,1000.1903
2019-04-04T01:35:53.634Z,1000.1582
2019-04-04T01:36:04.183Z,1000.0981
2019-04-04T01:36:16.033Z,1000.1242
2019-04-04T01:36:27.860Z,1000.1187
2019-04-04T01:36:39.710Z,1000.0976
2019-04-04T01:36:51.558Z,1000.1085
2019-04-04T01:37:03.435Z,1000.0538
2019-04-04T01:37:15.242Z,1000.0097
2019-04-04T01:37:27.811Z,1000.0321
2019-04-04T01:37:39.058Z,999.96063
2019-04-04T01:37:50.880Z,999.9483
2019-04-04T01:38:02.714Z,1000.0407
2019-04-04T01:38:14.572Z,999.96673
2019-04-04T01:38:27.024Z,999.99249
2019-04-04T01:38:39.245Z,1000.0012
2019-04-04T01:38:51.080Z,999.96893
2019-04-04T01:39:02.904Z,999.98053
2019-04-04T01:39:14.747Z,1000.0034
2019-04-04T01:39:26.590Z,999.96032
2019-04-04T01:39:38.423Z,999.97143
2019-04-04T01:39:50.272Z,999.94024
2019-04-04T01:40:02.836Z,999.96484
2019-04-04T01:40:13.940Z,999.98608
2019-04-04T01:40:25.778Z,999.91626
2019-04-04T01:40:37.610Z,999.88421
2019-04-04T01:40:49.450Z,999.87768
2019-04-04T01:41:03.913Z,999.86615
2019-04-04T01:41:14.093Z,999.89233
2019-04-04T01:41:25.942Z,999.91687
2019-04-04T01:41:37.770Z,999.85369
2019-04-04T01:41:49.615Z,999.83892
2019-04-04T01:42:01.447Z,999.83142
2019-04-04T01:42:13.276Z,999.85845
2019-04-04T01:42:25.120Z,999.82305
2019-04-04T01:42:38.605Z,999.8067
2019-04-04T01:42:49.811Z,999.80169
2019-04-04T01:43:01.647Z,999.82366
2019-04-04T01:43:13.475Z,999.7517
2019-04-04T01:43:25.309Z,999.76721
2019-04-04T01:43:37.976Z,999.76532
2019-04-04T01:43:49.963Z,999.74157
2019-04-04T01:44:05.035Z,999.74139
2019-04-04T01:44:14.585Z,999.70434
2019-04-04T01:44:26.550Z,999.71325
2019-04-04T01:44:40.104Z,999.6828
2019-04-04T01:44:51.225Z,999.68377
2019-04-04T01:45:03.058Z,999.69091
2019-04-04T01:45:14.886Z,999.70568
2019-04-04T01:45:26.726Z,999.70733
2019-04-04T01:45:38.568Z,999.72436
2019-04-04T01:45:50.402Z,999.75604
2019-04-04T01:46:02.251Z,999.69445
2019-04-04T01:46:15.245Z,999.74188
2019-04-04T01:46:26.908Z,999.77954
2019-04-04T01:46:38.747Z,999.74694
2019-04-04T01:46:50.569Z,999.78033
2019-04-04T01:47:02.403Z,999.80798
2019-04-04T01:47:14.935Z,999.81176
2019-04-04T01:47:27.078Z,999.84619
2019-04-04T01:47:38.918Z,999.81176
2019-04-04T01:47:50.745Z,999.85778
2019-04-04T01:48:02.585Z,999.88873
2019-04-04T01:48:14.420Z,999.88067
2019-04-04T01:48:26.245Z,999.87561
2019-04-04T01:48:38.086Z,999.83392
2019-04-04T01:48:50.542Z,999.84356
2019-04-04T01:49:01.755Z,999.83874
2019-04-04T01:49:13.594Z,999.79626
2019-04-04T01:49:25.516Z,999.82122
2019-04-04T01:49:37.355Z,999.78576
2019-04-04T01:49:49.905Z,999.74218
2019-04-04T01:50:02.012Z,999.76617
2019-04-04T01:50:13.851Z,999.71069
2019-04-04T01:50:25.680Z,999.72967
2019-04-04T01:50:37.525Z,999.68719
2019-04-04T01:50:49.365Z,999.66656
2019-04-04T01:51:01.191Z,999.66284
2019-04-04T01:51:13.017Z,999.66711
2019-04-04T01:51:25.343Z,999.66546
2019-04-04T01:51:37.691Z,999.59356
2019-04-04T01:51:49.526Z,999.56298
2019-04-04T01:52:01.360Z,999.56951
2019-04-04T01:52:13.196Z,999.49877
2019-04-04T01:52:27.692Z,999.49725
2019-04-04T01:52:37.874Z,999.47265
2019-04-04T01:52:49.697Z,999.53479
2019-04-04T01:53:01.530Z,999.4826
2019-04-04T01:53:13.381Z,999.45202
2019-04-04T01:53:25.232Z,999.47387
2019-04-04T01:53:37.064Z,999.42651
2019-04-04T01:53:48.938Z,999.45758
2019-04-04T01:54:00.970Z,999.45922
2019-04-04T01:54:12.554Z,999.46032
2019-04-04T01:54:24.393Z,999.47497
2019-04-04T01:54:36.273Z,999.57641
2019-04-04T01:54:48.138Z,999.56518
2019-04-04T01:55:02.943Z,999.58752
2019-04-04T01:55:12.805Z,999.64154
2019-04-04T01:55:24.637Z,999.63653
2019-04-04T01:55:36.457Z,999.6372
2019-04-04T01:55:48.299Z,999.67468
2019-04-04T01:56:00.135Z,999.67657
2019-04-04T01:56:11.954Z,999.68676
2019-04-04T01:56:23.791Z,999.71362
2019-04-04T01:56:37.016Z,999.72991
2019-04-04T01:56:48.454Z,999.71801
2019-04-04T01:57:00.296Z,999.73767
2019-04-04T01:57:12.156Z,999.73376
2019-04-04T01:57:23.994Z,999.74688
2019-04-04T01:57:38.465Z,999.77404
2019-04-04T01:57:48.661Z,999.74249
2019-04-04T01:58:00.493Z,999.74908
2019-04-04T01:58:12.333Z,999.71752
2019-04-04T01:58:24.201Z,999.747
2019-04-04T01:58:36.035Z,999.7442
2019-04-04T01:58:47.866Z,999.75231
2019-04-04T01:58:59.711Z,999.78466
2019-04-04T01:59:12.234Z,999.75781
2019-04-04T01:59:24.368Z,999.77594
2019-04-04T01:59:36.236Z,999.74658
2019-04-04T01:59:48.071Z,999.78747
2019-04-04T01:59:59.909Z,999.79547
2019-04-04T02:00:14.648Z,999.8153
2019-04-04T02:00:24.634Z,999.81359
2019-04-04T02:00:36.480Z,999.85931
2019-04-04T02:00:48.310Z,999.8872
2019-04-04T02:01:00.150Z,999.88311
2019-04-04T02:01:11.998Z,999.92712
2019-04-04T02:01:23.846Z,999.90643
2019-04-04T02:01:35.684Z,999.95172
2019-04-04T02:01:47.506Z,999.96795
2019-04-04T02:01:59.345Z,1000.0007
2019-04-04T02:02:11.180Z,999.99145
2019-04-04T02:02:23.005Z,1000.004
2019-04-04T02:02:34.839Z,999.99969
2019-04-04T02:02:46.675Z,1000.0384
2019-04-04T02:02:58.501Z,1000.0711
2019-04-04T02:03:10.337Z,1000.0308
2019-04-04T02:03:22.634Z,1000.0723
2019-04-04T02:03:35.019Z,1000.1431
2019-04-04T02:03:46.853Z,1000.1486
2019-04-04T02:03:58.680Z,1000.1828
2019-04-04T02:04:10.518Z,1000.1654
2019-04-04T02:04:22.906Z,1000.1999
2019-04-04T02:04:35.197Z,1000.2211
2019-04-04T02:04:47.033Z,1000.2249
2019-04-04T02:04:58.866Z,1000.2207
2019-04-04T02:05:10.729Z,1000.3018
2019-04-04T02:05:22.573Z,1000.2452
2019-04-04T02:05:34.401Z,1000.2878
2019-04-04T02:05:46.247Z,1000.2648
2019-04-04T02:05:58.719Z,1000.2463
2019-04-04T02:06:09.930Z,1000.2703
2019-04-04T02:06:21.825Z,1000.3429
2019-04-04T02:06:33.608Z,1000.3353
2019-04-04T02:06:45.439Z,1000.2814
2019-04-04T02:06:59.127Z,1000.2868
2019-04-04T02:07:11.103Z,1000.2285
2019-04-04T02:07:22.930Z,1000.2831
2019-04-04T02:07:34.756Z,1000.2923
2019-04-04T02:07:46.597Z,1000.2951
2019-04-04T02:07:58.849Z,1000.2902
2019-04-04T02:08:11.279Z,1000.3103
2019-04-04T02:08:23.109Z,1000.2891
2019-04-04T02:08:34.940Z,1000.3022
2019-04-04T02:08:47.765Z,1000.3159
2019-04-04T02:09:02.444Z,1000.3316
2019-04-04T02:09:12.440Z,1000.3072
2019-04-04T02:09:24.283Z,1000.2816
2019-04-04T02:09:36.115Z,1000.2984
2019-04-04T02:09:47.950Z,1000.2904
2019-04-04T02:09:59.788Z,1000.2718
2019-04-04T02:10:11.676Z,1000.2736
2019-04-04T02:10:23.668Z,1000.3165
2019-04-04T02:10:35.502Z,1000.3459
2019-04-04T02:10:47.339Z,1000.3253
2019-04-04T02:10:59.179Z,1000.3128
2019-04-04T02:11:11.003Z,1000.2865
2019-04-04T02:11:22.849Z,1000.3096
2019-04-04T02:11:37.212Z,1000.3482
2019-04-04T02:11:47.508Z,1000.3125
2019-04-04T02:11:59.346Z,1000.2927
2019-04-04T02:12:11.169Z,1000.3085
2019-04-04T02:12:23.012Z,1000.3364
2019-04-04T02:12:34.860Z,1000.3185
2019-04-04T02:12:46.684Z,1000.33
2019-04-04T02:12:58.533Z,1000.2895
2019-04-04T02:13:10.516Z,1000.3401
2019-04-04T02:13:22.206Z,1000.3435
2019-04-04T02:13:34.053Z,1000.3429
2019-04-04T02:13:44.893Z,1000.2984
2019-04-04T02:13:56.703Z,1000.301
2019-04-04T02:14:09.843Z,1000.2853
2019-04-04T02:15:13.703Z,1000.2673
2019-04-04T02:15:23.757Z,1000.2426
2019-04-04T02:15:35.642Z,1000.2095
2019-04-04T02:15:47.506Z,1000.2257
2019-04-04T02:15:59.345Z,1000.2327
2019-04-04T02:16:11.194Z,1000.2318
2019-04-04T02:16:23.020Z,1000.2448
2019-04-04T02:16:34.855Z,1000.1843
2019-04-04T02:16:50.751Z,1000.2023
2019-04-04T02:16:59.507Z,1000.2212
2019-04-04T02:17:11.349Z,1000.1788
2019-04-04T02:17:23.178Z,1000.2051
2019-04-04T02:17:35.022Z,1000.1953
2019-04-04T02:17:46.858Z,1000.2028
2019-04-04T02:17:58.684Z,1000.2109
2019-04-04T02:18:10.509Z,1000.2059
2019-04-04T02:18:23.490Z,1000.1859
2019-04-04T02:18:35.161Z,1000.1956
2019-04-04T02:18:47.002Z,1000.1804
2019-04-04T02:18:58.829Z,1000.1461
2019-04-04T02:19:10.662Z,1000.2065